Fort Motte, South Carolina
Current Conditions -  °F | °C
As of 4:58 AM on Friday 26 Dec 2014 (Local Time) from KMMT Reporting Station
Clear Clear  
Wind Chill: 25°   Ceiling: Unl
Heat Index: 31°   Visibility: 10mi
Dew Point: 31°   Wind: 6mph
Humidity: 99%   Direction: 310°NW
Pressure: 30.29"   Gusts: NA
Location:  33.7122°N, 80.8747°W
Report Text: KMMT 260958Z AUTO 31005KT 10SM CLR M01/M01 A3029 RMK AO2 SLP261 T10071008 $
Loading
Personal Weather Stations






























Interactive Weather Map New forecast layout! Learn more

10-Day Weather Forecast

Advertisements
Track Severe Weather on mobile